createdAt,value
2022-08-09T00:01:27.835Z,19.3
2022-08-09T00:07:45.333Z,18.9
2022-08-09T00:13:46.960Z,18.8
2022-08-09T00:19:42.544Z,19
2022-08-09T00:25:43.413Z,18.9
2022-08-09T00:31:57.268Z,18.9
2022-08-09T00:37:57.016Z,18.5
2022-08-09T00:44:18.836Z,18.7
2022-08-09T00:50:24.025Z,18.5
2022-08-09T00:56:23.529Z,18.5
2022-08-09T01:02:15.785Z,18.5
2022-08-09T01:08:08.226Z,18.6
2022-08-09T01:14:18.021Z,18.2
2022-08-09T01:20:26.088Z,18.3
2022-08-09T01:26:23.627Z,18.1
2022-08-09T01:32:33.997Z,17.9
2022-08-09T01:38:57.019Z,17.9
2022-08-09T01:44:56.110Z,17.9
2022-08-09T01:51:07.709Z,18
2022-08-09T01:57:24.276Z,17.5
2022-08-09T02:03:44.566Z,17.8
2022-08-09T02:09:42.473Z,17.7
2022-08-09T02:16:15.314Z,17.6
2022-08-09T02:23:52.272Z,17.9
2022-08-09T02:30:37.394Z,17.8
2022-08-09T02:36:36.236Z,17.6
2022-08-09T02:42:42.248Z,17.5
2022-08-09T02:48:59.684Z,17.5
2022-08-09T02:55:39.504Z,17.6
2022-08-09T03:02:06.557Z,17.2
2022-08-09T03:08:11.424Z,17.3
2022-08-09T03:14:12.691Z,17.3
2022-08-09T03:20:29.603Z,17
2022-08-09T03:26:38.681Z,17.3
2022-08-09T03:33:13.182Z,17
2022-08-09T03:39:55.316Z,17
2022-08-09T03:46:03.532Z,16.7
2022-08-09T03:52:40.274Z,16.7
2022-08-09T03:58:54.662Z,17
2022-08-09T04:05:40.343Z,17.1
2022-08-09T04:11:54.320Z,17
2022-08-09T04:24:15.540Z,16.7
2022-08-09T04:30:38.747Z,16.5
2022-08-09T04:36:51.503Z,16.3
2022-08-09T04:42:49.425Z,16.5
2022-08-09T04:49:04.437Z,16.5
2022-08-09T04:55:57.554Z,16.6
2022-08-09T05:02:05.918Z,16.6
2022-08-09T05:08:08.262Z,16.7
2022-08-09T05:14:19.730Z,17.2
2022-08-09T05:20:29.712Z,18.2
2022-08-09T05:26:35.310Z,18.6
2022-08-09T05:32:42.124Z,20.1
2022-08-09T05:39:02.838Z,20.4
2022-08-09T05:45:19.463Z,21
2022-08-09T05:51:46.696Z,21.3
2022-08-09T05:57:51.514Z,23.3
2022-08-09T06:04:05.497Z,29.5
2022-08-09T06:10:20.184Z,29.4
2022-08-09T06:16:16.303Z,29.5
2022-08-09T06:22:07.694Z,23
2022-08-09T06:28:21.473Z,21.9
2022-08-09T06:34:29.966Z,21.8
2022-08-09T06:40:24.624Z,21.1
2022-08-09T06:46:39.324Z,20.5
2022-08-09T06:52:37.806Z,20.9
2022-08-09T06:58:40.975Z,20.8
2022-08-09T07:06:47.766Z,20.4
2022-08-09T07:13:44.853Z,20.7
2022-08-09T07:20:12.260Z,20.5
2022-08-09T07:26:06.783Z,20.9
2022-08-09T07:32:00.000Z,20.5
2022-08-09T07:37:52.436Z,20.6
2022-08-09T07:43:56.199Z,20.8
2022-08-09T07:49:52.540Z,20.9
2022-08-09T07:56:03.029Z,20.9
2022-08-09T08:02:19.142Z,20.8
2022-08-09T08:08:44.829Z,21
2022-08-09T08:15:48.946Z,21.3
2022-08-09T08:21:52.836Z,21.5
2022-08-09T08:27:49.792Z,21.5
2022-08-09T08:33:55.543Z,21.7
2022-08-09T08:39:52.994Z,21.8
2022-08-09T08:45:50.794Z,22
2022-08-09T08:52:58.609Z,22.1
2022-08-09T08:59:19.591Z,22.4
2022-08-09T09:05:59.349Z,22.5
2022-08-09T09:11:58.105Z,22.6
2022-08-09T09:17:54.121Z,22.7
2022-08-09T09:23:49.660Z,22.9
2022-08-09T09:30:08.728Z,23.1
2022-08-09T09:36:34.432Z,23.1
2022-08-09T09:42:38.253Z,23.3
2022-08-09T09:48:36.301Z,23.5
2022-08-09T09:54:36.794Z,23.7
2022-08-09T10:00:39.520Z,23.9
2022-08-09T10:06:51.720Z,23.9
2022-08-09T10:13:00.090Z,24.1
2022-08-09T10:19:25.505Z,24.2
2022-08-09T10:25:20.950Z,24.5
2022-08-09T10:38:55.131Z,25.1
2022-08-09T10:45:04.191Z,25
2022-08-09T10:51:07.793Z,25.4
2022-08-09T10:57:01.677Z,25.4
2022-08-09T11:03:03.502Z,25.3
2022-08-09T11:10:12.207Z,25.6
2022-08-09T11:16:15.919Z,25.7
2022-08-09T11:22:35.304Z,26.4
2022-08-09T11:28:54.479Z,26.3
2022-08-09T11:34:51.482Z,26.2
2022-08-09T11:40:43.605Z,26.2
2022-08-09T11:46:40.061Z,26.7
2022-08-09T11:52:49.743Z,26.9
2022-08-09T12:00:24.645Z,26.9
2022-08-09T12:06:26.897Z,27.1
2022-08-09T12:12:38.125Z,27
2022-08-09T12:18:39.158Z,27.4
2022-08-09T12:24:40.424Z,27.5
2022-08-09T12:30:39.380Z,27.6
2022-08-09T12:36:37.534Z,27.6
2022-08-09T12:42:43.624Z,27.6
2022-08-09T12:48:39.214Z,27.9
2022-08-09T12:54:34.317Z,27.8
2022-08-09T13:00:47.256Z,27.9
2022-08-09T13:06:42.752Z,28.1
2022-08-09T13:13:09.258Z,28.1
2022-08-09T13:20:37.060Z,28.6
2022-08-09T13:30:39.390Z,28.4
2022-08-09T13:38:17.510Z,28.5
2022-08-09T13:47:43.551Z,28.6
2022-08-09T13:53:57.963Z,28.6
2022-08-09T13:59:51.174Z,28.9
2022-08-09T14:05:57.703Z,28.8
2022-08-09T14:12:23.942Z,29.3
2022-08-09T14:18:20.744Z,29
2022-08-09T14:24:35.641Z,29.3
2022-08-09T14:30:42.487Z,29.2
2022-08-09T14:36:39.749Z,29.1
2022-08-09T14:42:37.202Z,29.2
2022-08-09T14:48:33.320Z,29.1
2022-08-09T14:54:27.955Z,29.4
2022-08-09T15:00:26.990Z,29.1
2022-08-09T15:06:27.185Z,29.1
2022-08-09T15:12:22.371Z,29.2
2022-08-09T15:18:19.229Z,29.4
2022-08-09T15:24:16.246Z,29.2
2022-08-09T15:30:49.056Z,29.2
2022-08-09T15:37:23.322Z,29.2
2022-08-09T15:43:59.204Z,29
2022-08-09T15:50:00.865Z,29
2022-08-09T15:56:20.900Z,29.1
2022-08-09T16:02:26.941Z,29.3
2022-08-09T16:08:24.793Z,29.2
2022-08-09T16:14:34.047Z,29.2
2022-08-09T16:20:33.259Z,29
2022-08-09T16:26:36.191Z,29.1
2022-08-09T16:32:43.186Z,29
2022-08-09T16:38:51.553Z,29
2022-08-09T16:44:47.313Z,29
2022-08-09T16:50:39.116Z,29
2022-08-09T16:56:58.583Z,29
2022-08-09T17:02:50.187Z,28.9
2022-08-09T17:09:01.118Z,28.9
2022-08-09T17:15:58.739Z,28.6
2022-08-09T17:21:55.524Z,28.6
2022-08-09T17:27:48.670Z,28.5
2022-08-09T17:33:45.108Z,28.4
2022-08-09T17:40:03.643Z,28.3
2022-08-09T17:46:11.316Z,28.2
2022-08-09T17:52:23.982Z,28.2
2022-08-09T17:58:19.989Z,28.1
2022-08-09T18:04:20.017Z,28
2022-08-09T18:10:09.743Z,27.8
2022-08-09T18:16:12.763Z,27.7
2022-08-09T18:22:33.792Z,27.6
2022-08-09T18:30:37.277Z,27.5
2022-08-09T18:48:44.909Z,27
2022-08-09T18:54:49.935Z,26.9
2022-08-09T19:00:50.253Z,26.7
2022-08-09T19:33:37.034Z,26
2022-08-09T19:46:34.315Z,25.7
2022-08-09T19:53:04.711Z,25.6
2022-08-09T19:59:18.142Z,25.4
2022-08-09T20:43:58.269Z,24.3
2022-08-09T20:50:46.894Z,24.4
2022-08-09T21:04:07.733Z,24.1
2022-08-09T21:19:01.626Z,23.8
2022-08-09T21:26:35.435Z,23.7
2022-08-09T21:32:35.505Z,23.5
2022-08-09T21:45:23.657Z,23.4
2022-08-09T21:51:43.452Z,23.4
2022-08-09T21:57:58.416Z,22.8
2022-08-09T22:03:59.325Z,22.9
2022-08-09T22:10:00.310Z,22.7
2022-08-09T22:15:55.423Z,22.5
2022-08-09T22:21:54.601Z,22.4
2022-08-09T22:27:47.129Z,22.4
2022-08-09T22:33:55.547Z,22.4
2022-08-09T22:40:08.663Z,22
2022-08-09T22:48:07.014Z,22
2022-08-09T22:54:41.707Z,22.2
2022-08-09T23:00:43.033Z,22.3
2022-08-09T23:06:46.370Z,22.3
2022-08-09T23:12:56.567Z,22.3
2022-08-09T23:18:48.684Z,22.4
2022-08-09T23:24:48.569Z,22.2
2022-08-09T23:30:51.447Z,22.2
2022-08-09T23:36:53.619Z,21.9
2022-08-09T23:42:48.025Z,21.8
2022-08-09T23:48:44.350Z,21.8
2022-08-09T23:54:37.530Z,21.8
